sensor_id;sensor_type;location;lat;lon;timestamp;P1;durP1;ratioP1;P2;durP2;ratioP2
7957;SDS011;4024;52.172;5.378;2022-10-16T00:01:23;5.73;;;2.53;;
7957;SDS011;4024;52.172;5.378;2022-10-16T00:03:51;6.17;;;2.43;;
7957;SDS011;4024;52.172;5.378;2022-10-16T00:06:18;4.67;;;2.93;;
7957;SDS011;4024;52.172;5.378;2022-10-16T00:08:45;4.50;;;2.73;;
7957;SDS011;4024;52.172;5.378;2022-10-16T00:11:13;5.50;;;2.67;;
7957;SDS011;4024;52.172;5.378;2022-10-16T00:13:41;5.50;;;2.80;;
7957;SDS011;4024;52.172;5.378;2022-10-16T00:16:09;4.97;;;2.60;;
7957;SDS011;4024;52.172;5.378;2022-10-16T00:18:35;5.27;;;2.60;;
7957;SDS011;4024;52.172;5.378;2022-10-16T00:21:09;5.27;;;2.70;;
7957;SDS011;4024;52.172;5.378;2022-10-16T00:23:37;5.70;;;2.80;;
7957;SDS011;4024;52.172;5.378;2022-10-16T00:26:04;4.93;;;2.80;;
7957;SDS011;4024;52.172;5.378;2022-10-16T00:28:32;4.37;;;2.70;;
7957;SDS011;4024;52.172;5.378;2022-10-16T00:30:58;4.40;;;2.50;;
7957;SDS011;4024;52.172;5.378;2022-10-16T00:33:27;5.33;;;3.10;;
7957;SDS011;4024;52.172;5.378;2022-10-16T00:35:52;4.77;;;2.67;;
7957;SDS011;4024;52.172;5.378;2022-10-16T00:38:18;3.90;;;2.77;;
7957;SDS011;4024;52.172;5.378;2022-10-16T00:40:44;6.83;;;2.80;;
7957;SDS011;4024;52.172;5.378;2022-10-16T00:43:13;5.50;;;3.40;;
7957;SDS011;4024;52.172;5.378;2022-10-16T00:45:57;4.20;;;3.00;;
7957;SDS011;4024;52.172;5.378;2022-10-16T00:48:24;4.73;;;2.80;;
7957;SDS011;4024;52.172;5.378;2022-10-16T00:50:50;7.67;;;2.87;;
7957;SDS011;4024;52.172;5.378;2022-10-16T00:53:16;6.27;;;2.93;;
7957;SDS011;4024;52.172;5.378;2022-10-16T00:55:42;3.63;;;2.73;;
7957;SDS011;4024;52.172;5.378;2022-10-16T00:58:09;5.80;;;3.10;;
7957;SDS011;4024;52.172;5.378;2022-10-16T01:00:35;4.97;;;3.07;;
7957;SDS011;4024;52.172;5.378;2022-10-16T01:03:00;4.03;;;3.07;;
7957;SDS011;4024;52.172;5.378;2022-10-16T01:05:33;3.37;;;2.97;;
7957;SDS011;4024;52.172;5.378;2022-10-16T01:08:12;4.53;;;3.20;;
7957;SDS011;4024;52.172;5.378;2022-10-16T01:10:49;5.13;;;2.83;;
7957;SDS011;4024;52.172;5.378;2022-10-16T01:13:24;5.67;;;3.30;;
7957;SDS011;4024;52.172;5.378;2022-10-16T01:16:03;6.00;;;2.90;;
7957;SDS011;4024;52.172;5.378;2022-10-16T01:18:38;6.17;;;3.17;;
7957;SDS011;4024;52.172;5.378;2022-10-16T01:21:10;4.67;;;2.83;;
7957;SDS011;4024;52.172;5.378;2022-10-16T01:26:34;4.13;;;3.00;;
7957;SDS011;4024;52.172;5.378;2022-10-16T01:29:09;3.80;;;2.87;;
7957;SDS011;4024;52.172;5.378;2022-10-16T01:31:40;3.90;;;2.77;;
7957;SDS011;4024;52.172;5.378;2022-10-16T01:37:05;5.07;;;2.97;;
7957;SDS011;4024;52.172;5.378;2022-10-16T01:39:38;5.70;;;2.80;;
7957;SDS011;4024;52.172;5.378;2022-10-16T01:42:11;3.87;;;3.00;;
7957;SDS011;4024;52.172;5.378;2022-10-16T01:44:43;3.87;;;2.90;;
7957;SDS011;4024;52.172;5.378;2022-10-16T01:47:12;4.40;;;3.23;;
7957;SDS011;4024;52.172;5.378;2022-10-16T01:49:38;3.60;;;3.13;;
7957;SDS011;4024;52.172;5.378;2022-10-16T01:52:06;4.63;;;2.90;;
7957;SDS011;4024;52.172;5.378;2022-10-16T01:54:36;3.33;;;2.80;;
7957;SDS011;4024;52.172;5.378;2022-10-16T01:57:05;7.97;;;3.50;;
7957;SDS011;4024;52.172;5.378;2022-10-16T01:59:33;4.37;;;3.27;;
7957;SDS011;4024;52.172;5.378;2022-10-16T02:02:04;3.50;;;3.10;;
7957;SDS011;4024;52.172;5.378;2022-10-16T02:04:34;7.33;;;3.10;;
7957;SDS011;4024;52.172;5.378;2022-10-16T02:07:07;5.33;;;3.27;;
7957;SDS011;4024;52.172;5.378;2022-10-16T02:09:34;4.80;;;2.90;;
7957;SDS011;4024;52.172;5.378;2022-10-16T02:12:01;4.47;;;3.20;;
7957;SDS011;4024;52.172;5.378;2022-10-16T02:14:33;4.83;;;3.20;;
7957;SDS011;4024;52.172;5.378;2022-10-16T02:17:09;6.63;;;3.60;;
7957;SDS011;4024;52.172;5.378;2022-10-16T02:19:36;5.07;;;3.17;;
7957;SDS011;4024;52.172;5.378;2022-10-16T02:22:02;5.83;;;3.70;;
7957;SDS011;4024;52.172;5.378;2022-10-16T02:24:39;3.57;;;3.23;;
7957;SDS011;4024;52.172;5.378;2022-10-16T02:27:32;7.40;;;3.53;;
7957;SDS011;4024;52.172;5.378;2022-10-16T02:30:07;4.67;;;3.20;;
7957;SDS011;4024;52.172;5.378;2022-10-16T02:32:33;4.93;;;3.20;;
7957;SDS011;4024;52.172;5.378;2022-10-16T02:35:01;4.27;;;3.13;;
7957;SDS011;4024;52.172;5.378;2022-10-16T02:37:27;5.20;;;3.53;;
7957;SDS011;4024;52.172;5.378;2022-10-16T02:39:54;3.73;;;3.20;;
7957;SDS011;4024;52.172;5.378;2022-10-16T02:42:27;4.73;;;3.40;;
7957;SDS011;4024;52.172;5.378;2022-10-16T02:44:59;3.27;;;2.93;;
7957;SDS011;4024;52.172;5.378;2022-10-16T02:47:26;7.50;;;3.37;;
7957;SDS011;4024;52.172;5.378;2022-10-16T02:49:52;7.57;;;3.40;;
7957;SDS011;4024;52.172;5.378;2022-10-16T02:52:17;3.87;;;3.27;;
7957;SDS011;4024;52.172;5.378;2022-10-16T02:54:43;3.63;;;3.27;;
7957;SDS011;4024;52.172;5.378;2022-10-16T02:57:09;3.97;;;3.13;;
7957;SDS011;4024;52.172;5.378;2022-10-16T02:59:34;7.23;;;3.50;;
7957;SDS011;4024;52.172;5.378;2022-10-16T03:02:00;5.37;;;3.37;;
7957;SDS011;4024;52.172;5.378;2022-10-16T03:04:25;4.47;;;3.17;;
7957;SDS011;4024;52.172;5.378;2022-10-16T03:06:51;3.87;;;3.03;;
7957;SDS011;4024;52.172;5.378;2022-10-16T03:09:17;3.43;;;3.03;;
7957;SDS011;4024;52.172;5.378;2022-10-16T03:11:42;4.07;;;3.43;;
7957;SDS011;4024;52.172;5.378;2022-10-16T03:14:08;4.03;;;3.00;;
7957;SDS011;4024;52.172;5.378;2022-10-16T03:16:33;4.47;;;3.07;;
7957;SDS011;4024;52.172;5.378;2022-10-16T03:18:59;5.93;;;3.10;;
7957;SDS011;4024;52.172;5.378;2022-10-16T03:21:25;3.07;;;2.77;;
7957;SDS011;4024;52.172;5.378;2022-10-16T03:23:50;5.70;;;3.27;;
7957;SDS011;4024;52.172;5.378;2022-10-16T03:26:16;5.93;;;2.97;;
7957;SDS011;4024;52.172;5.378;2022-10-16T03:28:41;4.47;;;3.20;;
7957;SDS011;4024;52.172;5.378;2022-10-16T03:31:07;3.87;;;2.80;;
7957;SDS011;4024;52.172;5.378;2022-10-16T03:33:33;4.70;;;3.20;;
7957;SDS011;4024;52.172;5.378;2022-10-16T03:35:58;4.13;;;2.90;;
7957;SDS011;4024;52.172;5.378;2022-10-16T03:38:25;9.20;;;3.00;;
7957;SDS011;4024;52.172;5.378;2022-10-16T03:40:50;4.60;;;3.13;;
7957;SDS011;4024;52.172;5.378;2022-10-16T03:43:16;5.03;;;3.20;;
7957;SDS011;4024;52.172;5.378;2022-10-16T03:45:41;3.80;;;3.10;;
7957;SDS011;4024;52.172;5.378;2022-10-16T03:48:07;3.33;;;3.03;;
7957;SDS011;4024;52.172;5.378;2022-10-16T03:50:33;3.83;;;2.80;;
7957;SDS011;4024;52.172;5.378;2022-10-16T03:52:58;4.50;;;2.90;;
7957;SDS011;4024;52.172;5.378;2022-10-16T03:55:24;3.53;;;3.03;;
7957;SDS011;4024;52.172;5.378;2022-10-16T03:57:49;3.07;;;2.77;;
7957;SDS011;4024;52.172;5.378;2022-10-16T04:00:15;5.17;;;2.97;;
7957;SDS011;4024;52.172;5.378;2022-10-16T04:02:40;4.00;;;2.77;;
7957;SDS011;4024;52.172;5.378;2022-10-16T04:05:06;5.37;;;3.23;;
7957;SDS011;4024;52.172;5.378;2022-10-16T04:07:32;3.97;;;2.87;;
7957;SDS011;4024;52.172;5.378;2022-10-16T04:09:58;3.60;;;2.87;;
7957;SDS011;4024;52.172;5.378;2022-10-16T04:12:24;3.07;;;2.80;;
7957;SDS011;4024;52.172;5.378;2022-10-16T04:14:50;3.03;;;2.73;;
7957;SDS011;4024;52.172;5.378;2022-10-16T04:17:15;5.20;;;2.90;;
7957;SDS011;4024;52.172;5.378;2022-10-16T04:19:41;3.60;;;2.70;;
7957;SDS011;4024;52.172;5.378;2022-10-16T04:22:07;5.50;;;2.67;;
7957;SDS011;4024;52.172;5.378;2022-10-16T04:24:32;3.20;;;2.47;;
7957;SDS011;4024;52.172;5.378;2022-10-16T04:26:58;3.27;;;2.53;;
7957;SDS011;4024;52.172;5.378;2022-10-16T04:29:23;6.43;;;2.63;;
7957;SDS011;4024;52.172;5.378;2022-10-16T04:31:49;3.37;;;2.63;;
7957;SDS011;4024;52.172;5.378;2022-10-16T04:34:14;4.17;;;2.60;;
7957;SDS011;4024;52.172;5.378;2022-10-16T04:36:40;6.00;;;2.73;;
7957;SDS011;4024;52.172;5.378;2022-10-16T04:39:06;3.87;;;2.83;;
7957;SDS011;4024;52.172;5.378;2022-10-16T04:41:31;3.60;;;2.70;;
7957;SDS011;4024;52.172;5.378;2022-10-16T04:43:57;4.73;;;2.50;;
7957;SDS011;4024;52.172;5.378;2022-10-16T04:46:22;6.10;;;2.73;;
7957;SDS011;4024;52.172;5.378;2022-10-16T04:48:48;3.70;;;2.60;;
7957;SDS011;4024;52.172;5.378;2022-10-16T04:51:14;3.70;;;2.73;;
7957;SDS011;4024;52.172;5.378;2022-10-16T04:53:40;4.10;;;2.60;;
7957;SDS011;4024;52.172;5.378;2022-10-16T04:56:06;7.63;;;2.70;;
7957;SDS011;4024;52.172;5.378;2022-10-16T04:58:32;4.00;;;2.47;;
7957;SDS011;4024;52.172;5.378;2022-10-16T05:00:58;3.93;;;3.00;;
7957;SDS011;4024;52.172;5.378;2022-10-16T05:03:23;4.50;;;2.63;;
7957;SDS011;4024;52.172;5.378;2022-10-16T05:05:49;2.97;;;2.50;;
7957;SDS011;4024;52.172;5.378;2022-10-16T05:08:15;3.43;;;2.80;;
7957;SDS011;4024;52.172;5.378;2022-10-16T05:10:41;5.00;;;2.80;;
7957;SDS011;4024;52.172;5.378;2022-10-16T05:13:08;4.37;;;2.77;;
7957;SDS011;4024;52.172;5.378;2022-10-16T05:15:34;3.70;;;2.60;;
7957;SDS011;4024;52.172;5.378;2022-10-16T05:17:59;3.23;;;2.80;;
7957;SDS011;4024;52.172;5.378;2022-10-16T05:20:25;4.50;;;2.70;;
7957;SDS011;4024;52.172;5.378;2022-10-16T05:22:51;5.20;;;3.00;;
7957;SDS011;4024;52.172;5.378;2022-10-16T05:25:16;3.97;;;2.70;;
7957;SDS011;4024;52.172;5.378;2022-10-16T05:27:42;3.30;;;2.50;;
7957;SDS011;4024;52.172;5.378;2022-10-16T05:30:08;3.40;;;2.60;;
7957;SDS011;4024;52.172;5.378;2022-10-16T05:32:34;3.27;;;2.87;;
7957;SDS011;4024;52.172;5.378;2022-10-16T05:34:59;5.27;;;2.60;;
7957;SDS011;4024;52.172;5.378;2022-10-16T05:37:27;3.53;;;2.90;;
7957;SDS011;4024;52.172;5.378;2022-10-16T05:39:52;5.77;;;3.00;;
7957;SDS011;4024;52.172;5.378;2022-10-16T05:42:18;5.47;;;2.63;;
7957;SDS011;4024;52.172;5.378;2022-10-16T05:44:43;3.00;;;2.70;;
7957;SDS011;4024;52.172;5.378;2022-10-16T05:47:09;4.63;;;2.90;;
7957;SDS011;4024;52.172;5.378;2022-10-16T05:49:37;3.33;;;2.70;;
7957;SDS011;4024;52.172;5.378;2022-10-16T05:52:02;3.17;;;2.63;;
7957;SDS011;4024;52.172;5.378;2022-10-16T05:54:28;7.77;;;3.00;;
7957;SDS011;4024;52.172;5.378;2022-10-16T05:56:54;3.13;;;2.57;;
7957;SDS011;4024;52.172;5.378;2022-10-16T05:59:19;4.77;;;3.67;;
7957;SDS011;4024;52.172;5.378;2022-10-16T06:01:45;4.40;;;2.90;;
7957;SDS011;4024;52.172;5.378;2022-10-16T06:04:11;4.47;;;3.20;;
7957;SDS011;4024;52.172;5.378;2022-10-16T06:06:36;5.17;;;3.00;;
7957;SDS011;4024;52.172;5.378;2022-10-16T06:09:02;4.03;;;3.10;;
7957;SDS011;4024;52.172;5.378;2022-10-16T06:11:29;3.80;;;3.13;;
7957;SDS011;4024;52.172;5.378;2022-10-16T06:13:57;6.97;;;3.30;;
7957;SDS011;4024;52.172;5.378;2022-10-16T06:16:26;4.37;;;2.83;;
7957;SDS011;4024;52.172;5.378;2022-10-16T06:18:57;6.13;;;2.97;;
7957;SDS011;4024;52.172;5.378;2022-10-16T06:21:26;5.57;;;3.10;;
7957;SDS011;4024;52.172;5.378;2022-10-16T06:23:53;4.63;;;3.00;;
7957;SDS011;4024;52.172;5.378;2022-10-16T06:26:22;3.57;;;2.93;;
7957;SDS011;4024;52.172;5.378;2022-10-16T06:28:50;3.83;;;3.10;;
7957;SDS011;4024;52.172;5.378;2022-10-16T06:31:16;3.77;;;3.20;;
7957;SDS011;4024;52.172;5.378;2022-10-16T06:33:42;5.07;;;2.73;;
7957;SDS011;4024;52.172;5.378;2022-10-16T06:36:09;4.23;;;3.00;;
7957;SDS011;4024;52.172;5.378;2022-10-16T06:38:37;3.70;;;2.87;;
7957;SDS011;4024;52.172;5.378;2022-10-16T06:41:03;4.10;;;3.30;;
7957;SDS011;4024;52.172;5.378;2022-10-16T06:43:30;6.00;;;3.60;;
7957;SDS011;4024;52.172;5.378;2022-10-16T06:46:02;4.93;;;3.17;;
7957;SDS011;4024;52.172;5.378;2022-10-16T06:48:29;3.93;;;3.43;;
7957;SDS011;4024;52.172;5.378;2022-10-16T06:50:56;5.73;;;3.23;;
7957;SDS011;4024;52.172;5.378;2022-10-16T06:53:32;4.00;;;3.60;;
7957;SDS011;4024;52.172;5.378;2022-10-16T06:58:55;4.43;;;2.93;;
7957;SDS011;4024;52.172;5.378;2022-10-16T07:01:22;5.17;;;3.03;;
7957;SDS011;4024;52.172;5.378;2022-10-16T07:03:48;3.90;;;3.43;;
7957;SDS011;4024;52.172;5.378;2022-10-16T07:06:16;5.77;;;3.20;;
7957;SDS011;4024;52.172;5.378;2022-10-16T07:08:43;6.23;;;3.13;;
7957;SDS011;4024;52.172;5.378;2022-10-16T07:11:15;8.43;;;2.90;;
7957;SDS011;4024;52.172;5.378;2022-10-16T07:13:43;5.77;;;2.97;;
7957;SDS011;4024;52.172;5.378;2022-10-16T07:16:12;3.23;;;2.50;;
7957;SDS011;4024;52.172;5.378;2022-10-16T07:18:43;3.17;;;2.87;;
7957;SDS011;4024;52.172;5.378;2022-10-16T07:21:15;6.80;;;2.47;;
7957;SDS011;4024;52.172;5.378;2022-10-16T07:23:42;7.23;;;2.97;;
7957;SDS011;4024;52.172;5.378;2022-10-16T07:26:08;6.40;;;3.03;;
7957;SDS011;4024;52.172;5.378;2022-10-16T07:28:35;2.83;;;2.37;;
7957;SDS011;4024;52.172;5.378;2022-10-16T07:31:04;5.67;;;2.87;;
7957;SDS011;4024;52.172;5.378;2022-10-16T07:33:33;8.47;;;2.47;;
7957;SDS011;4024;52.172;5.378;2022-10-16T07:35:59;4.73;;;2.60;;
7957;SDS011;4024;52.172;5.378;2022-10-16T07:38:25;9.83;;;3.13;;
7957;SDS011;4024;52.172;5.378;2022-10-16T07:41:01;5.47;;;2.60;;
7957;SDS011;4024;52.172;5.378;2022-10-16T07:43:29;4.90;;;2.60;;
7957;SDS011;4024;52.172;5.378;2022-10-16T07:45:55;2.97;;;2.60;;
7957;SDS011;4024;52.172;5.378;2022-10-16T07:48:21;6.27;;;2.63;;
7957;SDS011;4024;52.172;5.378;2022-10-16T07:50:48;3.63;;;2.50;;
7957;SDS011;4024;52.172;5.378;2022-10-16T07:53:14;4.47;;;2.47;;
7957;SDS011;4024;52.172;5.378;2022-10-16T07:55:40;5.23;;;2.27;;
7957;SDS011;4024;52.172;5.378;2022-10-16T07:58:06;3.07;;;2.30;;
7957;SDS011;4024;52.172;5.378;2022-10-16T08:00:32;4.60;;;2.67;;
7957;SDS011;4024;52.172;5.378;2022-10-16T08:02:58;4.70;;;2.70;;
7957;SDS011;4024;52.172;5.378;2022-10-16T08:05:27;3.97;;;3.00;;
7957;SDS011;4024;52.172;5.378;2022-10-16T08:07:54;4.53;;;2.97;;
7957;SDS011;4024;52.172;5.378;2022-10-16T08:10:21;5.90;;;3.00;;
7957;SDS011;4024;52.172;5.378;2022-10-16T08:12:48;4.63;;;3.57;;
7957;SDS011;4024;52.172;5.378;2022-10-16T08:15:13;4.90;;;3.27;;
7957;SDS011;4024;52.172;5.378;2022-10-16T08:17:39;7.23;;;3.50;;
7957;SDS011;4024;52.172;5.378;2022-10-16T08:20:05;5.87;;;3.17;;
7957;SDS011;4024;52.172;5.378;2022-10-16T08:22:31;6.43;;;3.47;;
7957;SDS011;4024;52.172;5.378;2022-10-16T08:24:56;4.77;;;3.50;;
7957;SDS011;4024;52.172;5.378;2022-10-16T08:27:22;7.83;;;3.40;;
7957;SDS011;4024;52.172;5.378;2022-10-16T08:29:48;6.50;;;3.43;;
7957;SDS011;4024;52.172;5.378;2022-10-16T08:32:14;7.93;;;3.80;;
7957;SDS011;4024;52.172;5.378;2022-10-16T08:34:40;6.83;;;3.27;;
7957;SDS011;4024;52.172;5.378;2022-10-16T08:37:05;6.13;;;3.70;;
7957;SDS011;4024;52.172;5.378;2022-10-16T08:39:33;5.40;;;3.40;;
7957;SDS011;4024;52.172;5.378;2022-10-16T08:42:05;5.20;;;3.53;;
7957;SDS011;4024;52.172;5.378;2022-10-16T08:44:58;8.97;;;3.20;;
7957;SDS011;4024;52.172;5.378;2022-10-16T08:50:22;6.90;;;3.13;;
7957;SDS011;4024;52.172;5.378;2022-10-16T08:52:50;3.53;;;3.10;;
7957;SDS011;4024;52.172;5.378;2022-10-16T08:55:58;7.77;;;3.00;;
7957;SDS011;4024;52.172;5.378;2022-10-16T08:58:18;7.07;;;3.50;;
7957;SDS011;4024;52.172;5.378;2022-10-16T09:00:51;8.93;;;3.33;;
7957;SDS011;4024;52.172;5.378;2022-10-16T09:08:57;9.03;;;3.20;;
7957;SDS011;4024;52.172;5.378;2022-10-16T09:16:34;4.77;;;2.93;;
7957;SDS011;4024;52.172;5.378;2022-10-16T09:21:37;7.83;;;3.27;;
7957;SDS011;4024;52.172;5.378;2022-10-16T09:24:13;6.57;;;2.80;;
7957;SDS011;4024;52.172;5.378;2022-10-16T09:26:45;9.00;;;2.90;;
7957;SDS011;4024;52.172;5.378;2022-10-16T09:29:14;12.27;;;2.93;;
7957;SDS011;4024;52.172;5.378;2022-10-16T09:31:42;8.87;;;2.73;;
7957;SDS011;4024;52.172;5.378;2022-10-16T09:34:18;7.10;;;3.00;;
7957;SDS011;4024;52.172;5.378;2022-10-16T09:36:56;5.77;;;2.70;;
7957;SDS011;4024;52.172;5.378;2022-10-16T09:39:23;8.73;;;2.93;;
7957;SDS011;4024;52.172;5.378;2022-10-16T09:41:49;8.33;;;3.87;;
7957;SDS011;4024;52.172;5.378;2022-10-16T09:47:05;7.13;;;3.00;;
7957;SDS011;4024;52.172;5.378;2022-10-16T09:49:39;7.10;;;2.90;;
7957;SDS011;4024;52.172;5.378;2022-10-16T09:52:16;12.50;;;3.23;;
7957;SDS011;4024;52.172;5.378;2022-10-16T09:54:51;9.17;;;3.43;;
7957;SDS011;4024;52.172;5.378;2022-10-16T09:57:18;6.23;;;2.93;;
7957;SDS011;4024;52.172;5.378;2022-10-16T09:59:49;6.17;;;2.73;;
7957;SDS011;4024;52.172;5.378;2022-10-16T10:02:17;7.03;;;2.80;;
7957;SDS011;4024;52.172;5.378;2022-10-16T10:04:51;9.00;;;3.20;;
7957;SDS011;4024;52.172;5.378;2022-10-16T10:07:26;8.63;;;3.27;;
7957;SDS011;4024;52.172;5.378;2022-10-16T10:09:53;5.70;;;3.03;;
7957;SDS011;4024;52.172;5.378;2022-10-16T10:14:57;12.27;;;3.23;;
7957;SDS011;4024;52.172;5.378;2022-10-16T10:17:28;7.83;;;3.07;;
7957;SDS011;4024;52.172;5.378;2022-10-16T10:19:58;7.93;;;2.87;;
7957;SDS011;4024;52.172;5.378;2022-10-16T10:22:27;9.33;;;2.80;;
7957;SDS011;4024;52.172;5.378;2022-10-16T10:27:40;11.67;;;3.27;;
7957;SDS011;4024;52.172;5.378;2022-10-16T10:33:28;8.03;;;2.80;;
7957;SDS011;4024;52.172;5.378;2022-10-16T10:38:50;8.03;;;3.00;;
7957;SDS011;4024;52.172;5.378;2022-10-16T10:46:59;10.40;;;2.80;;
7957;SDS011;4024;52.172;5.378;2022-10-16T10:49:48;11.10;;;3.60;;
7957;SDS011;4024;52.172;5.378;2022-10-16T10:55:14;6.90;;;2.90;;
7957;SDS011;4024;52.172;5.378;2022-10-16T11:06:00;8.80;;;2.90;;
7957;SDS011;4024;52.172;5.378;2022-10-16T11:08:34;10.43;;;2.90;;
7957;SDS011;4024;52.172;5.378;2022-10-16T11:11:07;10.30;;;3.17;;
7957;SDS011;4024;52.172;5.378;2022-10-16T11:13:43;9.87;;;2.80;;
7957;SDS011;4024;52.172;5.378;2022-10-16T11:16:20;9.83;;;3.20;;
7957;SDS011;4024;52.172;5.378;2022-10-16T11:24:55;10.03;;;3.53;;
7957;SDS011;4024;52.172;5.378;2022-10-16T11:27:34;10.50;;;3.63;;
7957;SDS011;4024;52.172;5.378;2022-10-16T11:30:05;12.33;;;2.70;;
7957;SDS011;4024;52.172;5.378;2022-10-16T11:33:03;10.50;;;2.90;;
7957;SDS011;4024;52.172;5.378;2022-10-16T11:38:14;5.63;;;2.90;;
7957;SDS011;4024;52.172;5.378;2022-10-16T11:40:40;6.60;;;2.60;;
7957;SDS011;4024;52.172;5.378;2022-10-16T11:43:14;11.43;;;3.53;;
7957;SDS011;4024;52.172;5.378;2022-10-16T11:45:49;5.53;;;2.80;;
7957;SDS011;4024;52.172;5.378;2022-10-16T11:48:33;5.73;;;2.53;;
7957;SDS011;4024;52.172;5.378;2022-10-16T11:54:07;12.03;;;3.37;;
7957;SDS011;4024;52.172;5.378;2022-10-16T11:56:58;6.23;;;3.00;;
7957;SDS011;4024;52.172;5.378;2022-10-16T12:05:01;9.13;;;3.07;;
7957;SDS011;4024;52.172;5.378;2022-10-16T12:07:38;10.53;;;3.13;;
7957;SDS011;4024;52.172;5.378;2022-10-16T12:10:22;5.73;;;2.47;;
7957;SDS011;4024;52.172;5.378;2022-10-16T12:12:50;7.50;;;3.00;;
7957;SDS011;4024;52.172;5.378;2022-10-16T12:17:50;8.37;;;2.73;;
7957;SDS011;4024;52.172;5.378;2022-10-16T12:22:48;6.77;;;2.50;;
7957;SDS011;4024;52.172;5.378;2022-10-16T12:25:24;6.27;;;2.53;;
7957;SDS011;4024;52.172;5.378;2022-10-16T12:28:38;4.20;;;2.70;;
7957;SDS011;4024;52.172;5.378;2022-10-16T12:30:53;8.13;;;2.90;;
7957;SDS011;4024;52.172;5.378;2022-10-16T12:33:31;8.33;;;2.90;;
7957;SDS011;4024;52.172;5.378;2022-10-16T12:36:00;7.37;;;2.80;;
7957;SDS011;4024;52.172;5.378;2022-10-16T12:41:06;10.87;;;2.90;;
7957;SDS011;4024;52.172;5.378;2022-10-16T12:43:46;8.07;;;2.60;;
7957;SDS011;4024;52.172;5.378;2022-10-16T12:48:39;4.43;;;2.43;;
7957;SDS011;4024;52.172;5.378;2022-10-16T12:51:10;8.73;;;2.67;;
7957;SDS011;4024;52.172;5.378;2022-10-16T12:53:37;9.27;;;2.40;;
7957;SDS011;4024;52.172;5.378;2022-10-16T13:01:23;6.03;;;2.57;;
7957;SDS011;4024;52.172;5.378;2022-10-16T13:10:08;7.67;;;2.70;;
7957;SDS011;4024;52.172;5.378;2022-10-16T13:21:33;7.00;;;2.87;;
7957;SDS011;4024;52.172;5.378;2022-10-16T13:27:02;12.23;;;2.50;;
7957;SDS011;4024;52.172;5.378;2022-10-16T13:29:34;4.97;;;2.40;;
7957;SDS011;4024;52.172;5.378;2022-10-16T13:32:00;7.30;;;2.40;;
7957;SDS011;4024;52.172;5.378;2022-10-16T13:34:32;11.17;;;2.93;;
7957;SDS011;4024;52.172;5.378;2022-10-16T13:36:58;8.60;;;3.00;;
7957;SDS011;4024;52.172;5.378;2022-10-16T13:39:24;7.23;;;2.47;;
7957;SDS011;4024;52.172;5.378;2022-10-16T13:42:06;11.20;;;3.13;;
7957;SDS011;4024;52.172;5.378;2022-10-16T13:44:41;5.87;;;2.80;;
7957;SDS011;4024;52.172;5.378;2022-10-16T13:47:20;9.77;;;2.77;;
7957;SDS011;4024;52.172;5.378;2022-10-16T13:50:04;7.20;;;2.70;;
7957;SDS011;4024;52.172;5.378;2022-10-16T13:52:35;9.27;;;2.80;;
7957;SDS011;4024;52.172;5.378;2022-10-16T13:55:01;8.77;;;2.67;;
7957;SDS011;4024;52.172;5.378;2022-10-16T13:57:27;7.57;;;2.60;;
7957;SDS011;4024;52.172;5.378;2022-10-16T13:59:52;5.97;;;2.23;;
7957;SDS011;4024;52.172;5.378;2022-10-16T14:02:25;4.77;;;2.30;;
7957;SDS011;4024;52.172;5.378;2022-10-16T14:05:02;6.73;;;2.70;;
7957;SDS011;4024;52.172;5.378;2022-10-16T14:07:30;9.23;;;2.83;;
7957;SDS011;4024;52.172;5.378;2022-10-16T14:10:02;9.63;;;2.67;;
7957;SDS011;4024;52.172;5.378;2022-10-16T14:12:32;8.27;;;2.67;;
7957;SDS011;4024;52.172;5.378;2022-10-16T14:14:59;7.63;;;2.73;;
7957;SDS011;4024;52.172;5.378;2022-10-16T14:17:26;8.37;;;2.60;;
7957;SDS011;4024;52.172;5.378;2022-10-16T14:19:55;9.73;;;3.00;;
7957;SDS011;4024;52.172;5.378;2022-10-16T14:22:33;6.93;;;2.20;;
7957;SDS011;4024;52.172;5.378;2022-10-16T14:25:24;7.80;;;3.10;;
7957;SDS011;4024;52.172;5.378;2022-10-16T14:35:59;6.37;;;2.33;;
7957;SDS011;4024;52.172;5.378;2022-10-16T14:38:30;8.13;;;2.67;;
7957;SDS011;4024;52.172;5.378;2022-10-16T14:40:57;8.07;;;2.40;;
7957;SDS011;4024;52.172;5.378;2022-10-16T14:43:34;6.47;;;2.43;;
7957;SDS011;4024;52.172;5.378;2022-10-16T14:46:16;8.67;;;2.90;;
7957;SDS011;4024;52.172;5.378;2022-10-16T14:48:46;8.63;;;2.57;;
7957;SDS011;4024;52.172;5.378;2022-10-16T14:51:18;9.07;;;2.83;;
7957;SDS011;4024;52.172;5.378;2022-10-16T14:53:44;7.70;;;3.10;;
7957;SDS011;4024;52.172;5.378;2022-10-16T14:56:17;10.03;;;2.80;;
7957;SDS011;4024;52.172;5.378;2022-10-16T14:58:45;8.13;;;2.80;;
7957;SDS011;4024;52.172;5.378;2022-10-16T15:01:11;7.73;;;2.67;;
7957;SDS011;4024;52.172;5.378;2022-10-16T15:03:37;11.03;;;2.93;;
7957;SDS011;4024;52.172;5.378;2022-10-16T15:06:03;8.50;;;2.90;;
7957;SDS011;4024;52.172;5.378;2022-10-16T15:08:34;6.60;;;3.10;;
7957;SDS011;4024;52.172;5.378;2022-10-16T15:11:00;8.80;;;3.00;;
7957;SDS011;4024;52.172;5.378;2022-10-16T15:13:25;8.17;;;2.37;;
7957;SDS011;4024;52.172;5.378;2022-10-16T15:15:51;6.97;;;2.47;;
7957;SDS011;4024;52.172;5.378;2022-10-16T15:18:18;6.37;;;2.43;;
7957;SDS011;4024;52.172;5.378;2022-10-16T15:20:48;9.73;;;2.80;;
7957;SDS011;4024;52.172;5.378;2022-10-16T15:23:15;6.37;;;2.47;;
7957;SDS011;4024;52.172;5.378;2022-10-16T15:25:47;6.13;;;2.90;;
7957;SDS011;4024;52.172;5.378;2022-10-16T15:28:17;6.90;;;2.53;;
7957;SDS011;4024;52.172;5.378;2022-10-16T15:30:43;6.67;;;2.50;;
7957;SDS011;4024;52.172;5.378;2022-10-16T15:33:21;6.53;;;2.40;;
7957;SDS011;4024;52.172;5.378;2022-10-16T15:35:49;7.47;;;3.03;;
7957;SDS011;4024;52.172;5.378;2022-10-16T15:38:16;7.43;;;3.57;;
7957;SDS011;4024;52.172;5.378;2022-10-16T15:40:43;7.27;;;3.20;;
7957;SDS011;4024;52.172;5.378;2022-10-16T15:43:09;7.63;;;4.40;;
7957;SDS011;4024;52.172;5.378;2022-10-16T15:45:35;10.60;;;4.37;;
7957;SDS011;4024;52.172;5.378;2022-10-16T15:48:01;7.60;;;3.77;;
7957;SDS011;4024;52.172;5.378;2022-10-16T15:50:26;6.57;;;3.63;;
7957;SDS011;4024;52.172;5.378;2022-10-16T15:52:53;11.93;;;3.73;;
7957;SDS011;4024;52.172;5.378;2022-10-16T15:55:18;9.30;;;4.27;;
7957;SDS011;4024;52.172;5.378;2022-10-16T15:57:44;9.07;;;5.30;;
7957;SDS011;4024;52.172;5.378;2022-10-16T16:00:12;10.73;;;5.30;;
7957;SDS011;4024;52.172;5.378;2022-10-16T16:02:40;7.60;;;4.37;;
7957;SDS011;4024;52.172;5.378;2022-10-16T16:05:07;7.43;;;3.90;;
7957;SDS011;4024;52.172;5.378;2022-10-16T16:07:37;4.57;;;3.00;;
7957;SDS011;4024;52.172;5.378;2022-10-16T16:10:05;6.63;;;2.83;;
7957;SDS011;4024;52.172;5.378;2022-10-16T16:12:33;7.13;;;3.00;;
7957;SDS011;4024;52.172;5.378;2022-10-16T16:14:59;7.83;;;3.17;;
7957;SDS011;4024;52.172;5.378;2022-10-16T16:17:24;7.67;;;3.20;;
7957;SDS011;4024;52.172;5.378;2022-10-16T16:19:50;9.17;;;3.17;;
7957;SDS011;4024;52.172;5.378;2022-10-16T16:22:16;6.67;;;2.90;;
7957;SDS011;4024;52.172;5.378;2022-10-16T16:24:42;7.53;;;3.17;;
7957;SDS011;4024;52.172;5.378;2022-10-16T16:27:08;7.80;;;3.90;;
7957;SDS011;4024;52.172;5.378;2022-10-16T16:29:34;16.93;;;4.40;;
7957;SDS011;4024;52.172;5.378;2022-10-16T16:32:00;10.17;;;5.60;;
7957;SDS011;4024;52.172;5.378;2022-10-16T16:34:26;11.93;;;6.57;;
7957;SDS011;4024;52.172;5.378;2022-10-16T16:36:54;14.70;;;6.10;;
7957;SDS011;4024;52.172;5.378;2022-10-16T16:39:20;10.30;;;5.90;;
7957;SDS011;4024;52.172;5.378;2022-10-16T16:41:46;10.67;;;5.30;;
7957;SDS011;4024;52.172;5.378;2022-10-16T16:44:12;11.87;;;5.83;;
7957;SDS011;4024;52.172;5.378;2022-10-16T16:46:40;10.17;;;4.93;;
7957;SDS011;4024;52.172;5.378;2022-10-16T16:49:08;12.73;;;5.47;;
7957;SDS011;4024;52.172;5.378;2022-10-16T16:51:35;10.00;;;5.47;;
7957;SDS011;4024;52.172;5.378;2022-10-16T16:54:01;13.00;;;5.40;;
7957;SDS011;4024;52.172;5.378;2022-10-16T16:56:26;12.57;;;6.27;;
7957;SDS011;4024;52.172;5.378;2022-10-16T16:58:53;9.10;;;5.20;;
7957;SDS011;4024;52.172;5.378;2022-10-16T17:01:21;16.03;;;6.60;;
7957;SDS011;4024;52.172;5.378;2022-10-16T17:03:49;9.50;;;6.33;;
7957;SDS011;4024;52.172;5.378;2022-10-16T17:06:17;10.57;;;5.77;;
7957;SDS011;4024;52.172;5.378;2022-10-16T17:08:43;9.23;;;5.90;;
7957;SDS011;4024;52.172;5.378;2022-10-16T17:11:20;13.33;;;6.27;;
7957;SDS011;4024;52.172;5.378;2022-10-16T17:13:47;16.47;;;7.37;;
7957;SDS011;4024;52.172;5.378;2022-10-16T17:16:13;17.50;;;8.93;;
7957;SDS011;4024;52.172;5.378;2022-10-16T17:18:39;16.03;;;8.73;;
7957;SDS011;4024;52.172;5.378;2022-10-16T17:21:06;14.77;;;8.87;;